sensor_id;sensor_type;location;lat;lon;timestamp;P1;durP1;ratioP1;P2;durP2;ratioP2
59512;SDS011;45330;51.634;5.562;2022-10-16T00:01:33;15.60;;;5.30;;
59512;SDS011;45330;51.634;5.562;2022-10-16T00:03:59;14.07;;;5.00;;
59512;SDS011;45330;51.634;5.562;2022-10-16T00:06:25;16.45;;;5.32;;
59512;SDS011;45330;51.634;5.562;2022-10-16T00:08:52;15.50;;;5.53;;
59512;SDS011;45330;51.634;5.562;2022-10-16T00:11:21;19.27;;;5.35;;
59512;SDS011;45330;51.634;5.562;2022-10-16T00:13:54;16.20;;;5.60;;
59512;SDS011;45330;51.634;5.562;2022-10-16T00:16:21;14.77;;;5.03;;
59512;SDS011;45330;51.634;5.562;2022-10-16T00:18:47;16.27;;;5.50;;
59512;SDS011;45330;51.634;5.562;2022-10-16T00:21:13;15.25;;;5.15;;
59512;SDS011;45330;51.634;5.562;2022-10-16T00:23:41;13.90;;;4.93;;
59512;SDS011;45330;51.634;5.562;2022-10-16T00:26:08;14.20;;;5.25;;
59512;SDS011;45330;51.634;5.562;2022-10-16T00:28:36;13.52;;;4.93;;
59512;SDS011;45330;51.634;5.562;2022-10-16T00:31:03;19.13;;;6.07;;
59512;SDS011;45330;51.634;5.562;2022-10-16T00:33:29;15.38;;;5.25;;
59512;SDS011;45330;51.634;5.562;2022-10-16T00:35:57;14.45;;;5.55;;
59512;SDS011;45330;51.634;5.562;2022-10-16T00:38:23;15.00;;;5.30;;
59512;SDS011;45330;51.634;5.562;2022-10-16T00:40:48;14.55;;;5.30;;
59512;SDS011;45330;51.634;5.562;2022-10-16T00:43:32;14.63;;;5.32;;
59512;SDS011;45330;51.634;5.562;2022-10-16T00:46:00;14.55;;;5.57;;
59512;SDS011;45330;51.634;5.562;2022-10-16T00:48:27;14.38;;;5.50;;
59512;SDS011;45330;51.634;5.562;2022-10-16T00:50:53;12.35;;;5.20;;
59512;SDS011;45330;51.634;5.562;2022-10-16T00:53:19;19.23;;;5.47;;
59512;SDS011;45330;51.634;5.562;2022-10-16T00:55:45;14.52;;;5.30;;
59512;SDS011;45330;51.634;5.562;2022-10-16T00:58:11;14.75;;;5.20;;
59512;SDS011;45330;51.634;5.562;2022-10-16T01:00:37;16.38;;;5.60;;
59512;SDS011;45330;51.634;5.562;2022-10-16T01:03:03;15.05;;;5.72;;
59512;SDS011;45330;51.634;5.562;2022-10-16T01:05:49;16.08;;;5.65;;
59512;SDS011;45330;51.634;5.562;2022-10-16T01:08:24;14.32;;;5.35;;
59512;SDS011;45330;51.634;5.562;2022-10-16T01:11:04;12.45;;;4.88;;
59512;SDS011;45330;51.634;5.562;2022-10-16T01:14:09;12.32;;;5.03;;
59512;SDS011;45330;51.634;5.562;2022-10-16T01:16:45;15.75;;;5.38;;
59512;SDS011;45330;51.634;5.562;2022-10-16T01:19:20;14.57;;;5.50;;
59512;SDS011;45330;51.634;5.562;2022-10-16T01:21:59;15.93;;;4.88;;
59512;SDS011;45330;51.634;5.562;2022-10-16T01:27:06;15.05;;;5.68;;
59512;SDS011;45330;51.634;5.562;2022-10-16T01:29:48;17.55;;;6.05;;
59512;SDS011;45330;51.634;5.562;2022-10-16T01:32:28;16.73;;;6.00;;
59512;SDS011;45330;51.634;5.562;2022-10-16T01:35:04;13.77;;;5.63;;
59512;SDS011;45330;51.634;5.562;2022-10-16T01:37:56;14.85;;;5.70;;
59512;SDS011;45330;51.634;5.562;2022-10-16T01:40:32;14.27;;;5.15;;
59512;SDS011;45330;51.634;5.562;2022-10-16T01:43:11;14.55;;;5.20;;
59512;SDS011;45330;51.634;5.562;2022-10-16T01:45:39;14.13;;;4.93;;
59512;SDS011;45330;51.634;5.562;2022-10-16T01:48:06;15.38;;;5.50;;
59512;SDS011;45330;51.634;5.562;2022-10-16T01:50:35;14.82;;;5.45;;
59512;SDS011;45330;51.634;5.562;2022-10-16T01:53:05;14.33;;;4.93;;
59512;SDS011;45330;51.634;5.562;2022-10-16T01:55:35;14.50;;;4.70;;
59512;SDS011;45330;51.634;5.562;2022-10-16T01:58:06;13.55;;;4.63;;
59512;SDS011;45330;51.634;5.562;2022-10-16T02:00:33;13.60;;;4.93;;
59512;SDS011;45330;51.634;5.562;2022-10-16T02:03:01;15.80;;;4.70;;
59512;SDS011;45330;51.634;5.562;2022-10-16T02:05:30;14.40;;;4.80;;
59512;SDS011;45330;51.634;5.562;2022-10-16T02:07:59;11.95;;;4.65;;
59512;SDS011;45330;51.634;5.562;2022-10-16T02:10:25;11.50;;;4.50;;
59512;SDS011;45330;51.634;5.562;2022-10-16T02:12:57;15.40;;;5.20;;
59512;SDS011;45330;51.634;5.562;2022-10-16T02:15:34;13.88;;;4.43;;
59512;SDS011;45330;51.634;5.562;2022-10-16T02:18:01;14.60;;;4.95;;
59512;SDS011;45330;51.634;5.562;2022-10-16T02:20:28;12.07;;;4.55;;
59512;SDS011;45330;51.634;5.562;2022-10-16T02:23:01;10.13;;;4.20;;
59512;SDS011;45330;51.634;5.562;2022-10-16T02:25:37;13.90;;;4.40;;
59512;SDS011;45330;51.634;5.562;2022-10-16T02:28:08;10.70;;;4.25;;
59512;SDS011;45330;51.634;5.562;2022-10-16T02:30:46;10.15;;;4.28;;
59512;SDS011;45330;51.634;5.562;2022-10-16T02:33:16;11.95;;;4.35;;
59512;SDS011;45330;51.634;5.562;2022-10-16T02:35:46;12.00;;;4.20;;
59512;SDS011;45330;51.634;5.562;2022-10-16T02:38:13;13.02;;;4.30;;
59512;SDS011;45330;51.634;5.562;2022-10-16T02:40:40;11.85;;;4.30;;
59512;SDS011;45330;51.634;5.562;2022-10-16T02:43:06;12.80;;;4.68;;
59512;SDS011;45330;51.634;5.562;2022-10-16T02:45:31;13.40;;;4.30;;
59512;SDS011;45330;51.634;5.562;2022-10-16T02:47:57;12.77;;;4.35;;
59512;SDS011;45330;51.634;5.562;2022-10-16T02:50:22;12.85;;;4.55;;
59512;SDS011;45330;51.634;5.562;2022-10-16T02:52:49;11.50;;;4.68;;
59512;SDS011;45330;51.634;5.562;2022-10-16T02:55:14;12.80;;;4.55;;
59512;SDS011;45330;51.634;5.562;2022-10-16T02:57:40;13.52;;;4.65;;
59512;SDS011;45330;51.634;5.562;2022-10-16T03:00:06;11.88;;;4.50;;
59512;SDS011;45330;51.634;5.562;2022-10-16T03:02:33;11.00;;;4.40;;
59512;SDS011;45330;51.634;5.562;2022-10-16T03:04:58;13.93;;;4.50;;
59512;SDS011;45330;51.634;5.562;2022-10-16T03:07:23;14.23;;;4.72;;
59512;SDS011;45330;51.634;5.562;2022-10-16T03:09:49;14.13;;;4.55;;
59512;SDS011;45330;51.634;5.562;2022-10-16T03:12:14;15.18;;;4.57;;
59512;SDS011;45330;51.634;5.562;2022-10-16T03:14:39;13.13;;;4.38;;
59512;SDS011;45330;51.634;5.562;2022-10-16T03:17:05;13.18;;;4.53;;
59512;SDS011;45330;51.634;5.562;2022-10-16T03:19:31;11.82;;;4.28;;
59512;SDS011;45330;51.634;5.562;2022-10-16T03:21:56;10.90;;;4.68;;
59512;SDS011;45330;51.634;5.562;2022-10-16T03:24:22;13.70;;;4.70;;
59512;SDS011;45330;51.634;5.562;2022-10-16T03:26:47;11.88;;;4.78;;
59512;SDS011;45330;51.634;5.562;2022-10-16T03:29:13;11.98;;;4.28;;
59512;SDS011;45330;51.634;5.562;2022-10-16T03:31:38;11.30;;;4.60;;
59512;SDS011;45330;51.634;5.562;2022-10-16T03:34:03;11.25;;;4.60;;
59512;SDS011;45330;51.634;5.562;2022-10-16T03:36:29;13.90;;;4.75;;
59512;SDS011;45330;51.634;5.562;2022-10-16T03:38:54;13.38;;;5.05;;
59512;SDS011;45330;51.634;5.562;2022-10-16T03:41:20;11.05;;;4.78;;
59512;SDS011;45330;51.634;5.562;2022-10-16T03:43:45;14.52;;;4.88;;
59512;SDS011;45330;51.634;5.562;2022-10-16T03:46:10;13.57;;;5.13;;
59512;SDS011;45330;51.634;5.562;2022-10-16T03:48:36;13.25;;;4.78;;
59512;SDS011;45330;51.634;5.562;2022-10-16T03:51:01;14.25;;;5.07;;
59512;SDS011;45330;51.634;5.562;2022-10-16T03:53:27;13.43;;;5.07;;
59512;SDS011;45330;51.634;5.562;2022-10-16T03:55:52;12.55;;;4.78;;
59512;SDS011;45330;51.634;5.562;2022-10-16T03:58:18;11.55;;;4.63;;
59512;SDS011;45330;51.634;5.562;2022-10-16T04:00:44;12.68;;;4.75;;
59512;SDS011;45330;51.634;5.562;2022-10-16T04:03:10;12.02;;;4.93;;
59512;SDS011;45330;51.634;5.562;2022-10-16T04:05:36;15.60;;;4.70;;
59512;SDS011;45330;51.634;5.562;2022-10-16T04:08:01;12.98;;;5.00;;
59512;SDS011;45330;51.634;5.562;2022-10-16T04:10:27;11.25;;;4.30;;
59512;SDS011;45330;51.634;5.562;2022-10-16T04:12:53;13.75;;;4.40;;
59512;SDS011;45330;51.634;5.562;2022-10-16T04:15:23;14.02;;;4.70;;
59512;SDS011;45330;51.634;5.562;2022-10-16T04:17:50;10.65;;;4.47;;
59512;SDS011;45330;51.634;5.562;2022-10-16T04:20:15;15.98;;;5.00;;
59512;SDS011;45330;51.634;5.562;2022-10-16T04:22:41;14.10;;;4.72;;
59512;SDS011;45330;51.634;5.562;2022-10-16T04:25:06;13.32;;;4.93;;
59512;SDS011;45330;51.634;5.562;2022-10-16T04:27:32;14.02;;;5.10;;
59512;SDS011;45330;51.634;5.562;2022-10-16T04:29:58;12.48;;;4.47;;
59512;SDS011;45330;51.634;5.562;2022-10-16T04:32:24;13.93;;;5.10;;
59512;SDS011;45330;51.634;5.562;2022-10-16T04:34:50;13.07;;;5.28;;
59512;SDS011;45330;51.634;5.562;2022-10-16T04:37:15;11.23;;;4.82;;
59512;SDS011;45330;51.634;5.562;2022-10-16T04:39:41;14.60;;;5.15;;
59512;SDS011;45330;51.634;5.562;2022-10-16T04:42:06;15.27;;;4.78;;
59512;SDS011;45330;51.634;5.562;2022-10-16T04:44:31;13.40;;;4.85;;
59512;SDS011;45330;51.634;5.562;2022-10-16T04:46:57;15.27;;;4.57;;
59512;SDS011;45330;51.634;5.562;2022-10-16T04:49:22;14.10;;;4.50;;
59512;SDS011;45330;51.634;5.562;2022-10-16T04:51:47;13.50;;;4.78;;
59512;SDS011;45330;51.634;5.562;2022-10-16T04:54:13;10.90;;;4.30;;
59512;SDS011;45330;51.634;5.562;2022-10-16T04:56:38;14.43;;;4.63;;
59512;SDS011;45330;51.634;5.562;2022-10-16T04:59:15;12.57;;;4.40;;
59512;SDS011;45330;51.634;5.562;2022-10-16T05:01:41;12.10;;;4.80;;
59512;SDS011;45330;51.634;5.562;2022-10-16T05:04:07;11.13;;;4.28;;
59512;SDS011;45330;51.634;5.562;2022-10-16T05:06:32;13.57;;;4.65;;
59512;SDS011;45330;51.634;5.562;2022-10-16T05:08:58;11.38;;;4.25;;
59512;SDS011;45330;51.634;5.562;2022-10-16T05:11:23;12.70;;;4.20;;
59512;SDS011;45330;51.634;5.562;2022-10-16T05:13:49;13.15;;;4.25;;
59512;SDS011;45330;51.634;5.562;2022-10-16T05:16:14;13.30;;;4.88;;
59512;SDS011;45330;51.634;5.562;2022-10-16T05:18:40;15.27;;;4.75;;
59512;SDS011;45330;51.634;5.562;2022-10-16T05:21:05;12.95;;;4.93;;
59512;SDS011;45330;51.634;5.562;2022-10-16T05:23:31;12.02;;;4.40;;
59512;SDS011;45330;51.634;5.562;2022-10-16T05:25:57;14.27;;;4.43;;
59512;SDS011;45330;51.634;5.562;2022-10-16T05:28:24;13.00;;;4.63;;
59512;SDS011;45330;51.634;5.562;2022-10-16T05:30:50;14.85;;;5.22;;
59512;SDS011;45330;51.634;5.562;2022-10-16T05:33:16;13.48;;;4.75;;
59512;SDS011;45330;51.634;5.562;2022-10-16T05:35:41;12.48;;;4.75;;
59512;SDS011;45330;51.634;5.562;2022-10-16T05:38:07;15.00;;;5.13;;
59512;SDS011;45330;51.634;5.562;2022-10-16T05:40:32;15.90;;;5.00;;
59512;SDS011;45330;51.634;5.562;2022-10-16T05:42:57;15.05;;;4.88;;
59512;SDS011;45330;51.634;5.562;2022-10-16T05:45:23;13.30;;;4.85;;
59512;SDS011;45330;51.634;5.562;2022-10-16T05:47:48;15.93;;;5.38;;
59512;SDS011;45330;51.634;5.562;2022-10-16T05:50:13;14.25;;;5.00;;
59512;SDS011;45330;51.634;5.562;2022-10-16T05:52:39;18.45;;;5.40;;
59512;SDS011;45330;51.634;5.562;2022-10-16T05:55:04;16.50;;;5.40;;
59512;SDS011;45330;51.634;5.562;2022-10-16T05:57:30;13.35;;;5.30;;
59512;SDS011;45330;51.634;5.562;2022-10-16T05:59:55;16.55;;;4.88;;
59512;SDS011;45330;51.634;5.562;2022-10-16T06:02:21;14.82;;;5.20;;
59512;SDS011;45330;51.634;5.562;2022-10-16T06:04:46;14.80;;;5.38;;
59512;SDS011;45330;51.634;5.562;2022-10-16T06:07:11;16.15;;;5.30;;
59512;SDS011;45330;51.634;5.562;2022-10-16T06:09:37;16.05;;;5.47;;
59512;SDS011;45330;51.634;5.562;2022-10-16T06:12:02;14.50;;;5.28;;
59512;SDS011;45330;51.634;5.562;2022-10-16T06:14:28;17.33;;;5.82;;
59512;SDS011;45330;51.634;5.562;2022-10-16T06:16:53;26.13;;;7.57;;
59512;SDS011;45330;51.634;5.562;2022-10-16T06:19:18;20.42;;;6.35;;
59512;SDS011;45330;51.634;5.562;2022-10-16T06:21:44;19.10;;;6.45;;
59512;SDS011;45330;51.634;5.562;2022-10-16T06:24:10;19.30;;;6.25;;
59512;SDS011;45330;51.634;5.562;2022-10-16T06:26:35;21.33;;;6.93;;
59512;SDS011;45330;51.634;5.562;2022-10-16T06:29:01;18.65;;;6.68;;
59512;SDS011;45330;51.634;5.562;2022-10-16T06:31:27;20.48;;;6.60;;
59512;SDS011;45330;51.634;5.562;2022-10-16T06:33:56;19.13;;;6.80;;
59512;SDS011;45330;51.634;5.562;2022-10-16T06:36:22;18.92;;;7.28;;
59512;SDS011;45330;51.634;5.562;2022-10-16T06:38:49;19.52;;;6.95;;
59512;SDS011;45330;51.634;5.562;2022-10-16T06:41:18;19.08;;;7.03;;
59512;SDS011;45330;51.634;5.562;2022-10-16T06:43:45;20.60;;;7.53;;
59512;SDS011;45330;51.634;5.562;2022-10-16T06:46:12;21.92;;;7.03;;
59512;SDS011;45330;51.634;5.562;2022-10-16T06:48:40;21.30;;;7.38;;
59512;SDS011;45330;51.634;5.562;2022-10-16T06:51:08;21.23;;;7.60;;
59512;SDS011;45330;51.634;5.562;2022-10-16T06:53:36;22.00;;;8.10;;
59512;SDS011;45330;51.634;5.562;2022-10-16T06:56:07;18.88;;;7.70;;
59512;SDS011;45330;51.634;5.562;2022-10-16T06:58:34;19.38;;;7.65;;
59512;SDS011;45330;51.634;5.562;2022-10-16T07:00:59;20.02;;;7.47;;
59512;SDS011;45330;51.634;5.562;2022-10-16T07:03:24;18.92;;;7.53;;
59512;SDS011;45330;51.634;5.562;2022-10-16T07:05:50;23.33;;;8.00;;
59512;SDS011;45330;51.634;5.562;2022-10-16T07:08:15;19.67;;;8.05;;
59512;SDS011;45330;51.634;5.562;2022-10-16T07:10:40;20.13;;;7.13;;
59512;SDS011;45330;51.634;5.562;2022-10-16T07:13:06;16.08;;;6.40;;
59512;SDS011;45330;51.634;5.562;2022-10-16T07:15:32;18.17;;;5.95;;
59512;SDS011;45330;51.634;5.562;2022-10-16T07:17:58;18.05;;;5.85;;
59512;SDS011;45330;51.634;5.562;2022-10-16T07:20:23;16.83;;;5.15;;
59512;SDS011;45330;51.634;5.562;2022-10-16T07:22:48;15.90;;;5.18;;
59512;SDS011;45330;51.634;5.562;2022-10-16T07:25:14;13.23;;;4.65;;
59512;SDS011;45330;51.634;5.562;2022-10-16T07:27:39;14.63;;;4.53;;
59512;SDS011;45330;51.634;5.562;2022-10-16T07:30:05;13.70;;;4.28;;
59512;SDS011;45330;51.634;5.562;2022-10-16T07:32:31;10.68;;;4.20;;
59512;SDS011;45330;51.634;5.562;2022-10-16T07:34:56;15.02;;;4.45;;
59512;SDS011;45330;51.634;5.562;2022-10-16T07:37:22;12.85;;;4.05;;
59512;SDS011;45330;51.634;5.562;2022-10-16T07:39:47;11.50;;;3.78;;
59512;SDS011;45330;51.634;5.562;2022-10-16T07:42:12;12.40;;;3.80;;
59512;SDS011;45330;51.634;5.562;2022-10-16T07:44:38;10.50;;;3.38;;
59512;SDS011;45330;51.634;5.562;2022-10-16T07:47:03;8.95;;;3.42;;
59512;SDS011;45330;51.634;5.562;2022-10-16T07:49:29;9.75;;;3.40;;
59512;SDS011;45330;51.634;5.562;2022-10-16T07:51:54;12.18;;;3.45;;
59512;SDS011;45330;51.634;5.562;2022-10-16T07:54:19;12.57;;;3.70;;
59512;SDS011;45330;51.634;5.562;2022-10-16T07:56:45;14.18;;;3.65;;
59512;SDS011;45330;51.634;5.562;2022-10-16T07:59:10;10.50;;;3.45;;
59512;SDS011;45330;51.634;5.562;2022-10-16T08:01:36;11.73;;;3.25;;
59512;SDS011;45330;51.634;5.562;2022-10-16T08:04:01;12.77;;;3.30;;
59512;SDS011;45330;51.634;5.562;2022-10-16T08:06:26;10.55;;;3.10;;
59512;SDS011;45330;51.634;5.562;2022-10-16T08:08:52;11.23;;;3.10;;
59512;SDS011;45330;51.634;5.562;2022-10-16T08:11:17;10.52;;;3.47;;
59512;SDS011;45330;51.634;5.562;2022-10-16T08:13:43;10.52;;;3.08;;
59512;SDS011;45330;51.634;5.562;2022-10-16T08:16:08;13.30;;;3.47;;
59512;SDS011;45330;51.634;5.562;2022-10-16T08:18:38;8.85;;;3.17;;
59512;SDS011;45330;51.634;5.562;2022-10-16T08:21:05;9.32;;;3.03;;
59512;SDS011;45330;51.634;5.562;2022-10-16T08:23:32;10.73;;;3.10;;
59512;SDS011;45330;51.634;5.562;2022-10-16T08:26:01;10.50;;;2.70;;
59512;SDS011;45330;51.634;5.562;2022-10-16T08:28:29;10.15;;;3.05;;
59512;SDS011;45330;51.634;5.562;2022-10-16T08:30:54;11.90;;;3.50;;
59512;SDS011;45330;51.634;5.562;2022-10-16T08:33:21;9.80;;;3.25;;
59512;SDS011;45330;51.634;5.562;2022-10-16T08:35:53;10.77;;;3.17;;
59512;SDS011;45330;51.634;5.562;2022-10-16T08:38:19;11.32;;;3.30;;
59512;SDS011;45330;51.634;5.562;2022-10-16T08:40:45;11.85;;;3.15;;
59512;SDS011;45330;51.634;5.562;2022-10-16T08:48:57;11.30;;;3.15;;
59512;SDS011;45330;51.634;5.562;2022-10-16T08:51:34;9.45;;;3.08;;
59512;SDS011;45330;51.634;5.562;2022-10-16T08:57:16;12.23;;;3.15;;
59512;SDS011;45330;51.634;5.562;2022-10-16T08:59:45;10.15;;;2.95;;
59512;SDS011;45330;51.634;5.562;2022-10-16T09:02:19;9.73;;;3.20;;
59512;SDS011;45330;51.634;5.562;2022-10-16T09:12:56;10.57;;;3.40;;
59512;SDS011;45330;51.634;5.562;2022-10-16T09:18:21;10.23;;;2.75;;
59512;SDS011;45330;51.634;5.562;2022-10-16T09:21:23;12.57;;;2.60;;
59512;SDS011;45330;51.634;5.562;2022-10-16T09:23:49;10.32;;;2.60;;
59512;SDS011;45330;51.634;5.562;2022-10-16T09:26:15;14.32;;;3.15;;
59512;SDS011;45330;51.634;5.562;2022-10-16T09:28:41;10.15;;;2.60;;
59512;SDS011;45330;51.634;5.562;2022-10-16T09:31:14;12.45;;;2.58;;
59512;SDS011;45330;51.634;5.562;2022-10-16T09:33:42;8.43;;;2.63;;
59512;SDS011;45330;51.634;5.562;2022-10-16T09:36:10;11.00;;;2.90;;
59512;SDS011;45330;51.634;5.562;2022-10-16T09:38:38;9.88;;;2.55;;
59512;SDS011;45330;51.634;5.562;2022-10-16T09:41:12;11.65;;;2.47;;
59512;SDS011;45330;51.634;5.562;2022-10-16T09:43:46;13.02;;;2.47;;
59512;SDS011;45330;51.634;5.562;2022-10-16T09:46:21;11.27;;;2.95;;
59512;SDS011;45330;51.634;5.562;2022-10-16T09:48:48;9.30;;;2.40;;
59512;SDS011;45330;51.634;5.562;2022-10-16T09:53:58;9.27;;;2.80;;
59512;SDS011;45330;51.634;5.562;2022-10-16T09:56:37;18.20;;;3.50;;
59512;SDS011;45330;51.634;5.562;2022-10-16T09:59:13;16.58;;;2.97;;
59512;SDS011;45330;51.634;5.562;2022-10-16T10:01:41;13.80;;;2.80;;
59512;SDS011;45330;51.634;5.562;2022-10-16T10:04:10;12.57;;;2.45;;
59512;SDS011;45330;51.634;5.562;2022-10-16T10:06:46;13.15;;;2.67;;
59512;SDS011;45330;51.634;5.562;2022-10-16T10:09:18;11.93;;;3.10;;
59512;SDS011;45330;51.634;5.562;2022-10-16T10:11:50;15.23;;;2.83;;
59512;SDS011;45330;51.634;5.562;2022-10-16T10:16:52;13.88;;;2.83;;
59512;SDS011;45330;51.634;5.562;2022-10-16T10:19:55;13.25;;;2.78;;
59512;SDS011;45330;51.634;5.562;2022-10-16T10:25:24;15.95;;;3.15;;
59512;SDS011;45330;51.634;5.562;2022-10-16T10:30:39;14.68;;;2.75;;
59512;SDS011;45330;51.634;5.562;2022-10-16T10:36:32;13.50;;;2.70;;
59512;SDS011;45330;51.634;5.562;2022-10-16T10:50:12;15.48;;;2.65;;
59512;SDS011;45330;51.634;5.562;2022-10-16T11:06:20;17.58;;;3.05;;
59512;SDS011;45330;51.634;5.562;2022-10-16T11:09:00;17.38;;;3.72;;
59512;SDS011;45330;51.634;5.562;2022-10-16T11:12:29;15.77;;;2.65;;
59512;SDS011;45330;51.634;5.562;2022-10-16T11:17:23;14.15;;;2.72;;
59512;SDS011;45330;51.634;5.562;2022-10-16T11:19:56;19.42;;;3.13;;
59512;SDS011;45330;51.634;5.562;2022-10-16T11:25:15;17.35;;;2.80;;
59512;SDS011;45330;51.634;5.562;2022-10-16T11:33:28;14.57;;;2.65;;
59512;SDS011;45330;51.634;5.562;2022-10-16T11:39:04;15.63;;;2.70;;
59512;SDS011;45330;51.634;5.562;2022-10-16T11:49:57;18.58;;;2.63;;
59512;SDS011;45330;51.634;5.562;2022-10-16T11:52:28;10.75;;;2.40;;
59512;SDS011;45330;51.634;5.562;2022-10-16T11:55:38;15.43;;;2.38;;
59512;SDS011;45330;51.634;5.562;2022-10-16T11:58:15;14.65;;;2.67;;
59512;SDS011;45330;51.634;5.562;2022-10-16T12:06:22;15.85;;;2.80;;
59512;SDS011;45330;51.634;5.562;2022-10-16T12:08:57;17.83;;;2.65;;
59512;SDS011;45330;51.634;5.562;2022-10-16T12:14:03;16.67;;;2.90;;
59512;SDS011;45330;51.634;5.562;2022-10-16T12:16:32;16.40;;;3.67;;
59512;SDS011;45330;51.634;5.562;2022-10-16T12:19:18;14.82;;;2.85;;
59512;SDS011;45330;51.634;5.562;2022-10-16T12:21:43;15.10;;;2.50;;
59512;SDS011;45330;51.634;5.562;2022-10-16T12:27:24;15.68;;;2.80;;
59512;SDS011;45330;51.634;5.562;2022-10-16T12:29:57;16.25;;;2.55;;
59512;SDS011;45330;51.634;5.562;2022-10-16T12:34:53;14.43;;;2.40;;
59512;SDS011;45330;51.634;5.562;2022-10-16T12:37:30;16.90;;;2.67;;
59512;SDS011;45330;51.634;5.562;2022-10-16T12:39:58;13.85;;;2.70;;
59512;SDS011;45330;51.634;5.562;2022-10-16T12:44:53;15.98;;;2.83;;
59512;SDS011;45330;51.634;5.562;2022-10-16T12:49:57;14.73;;;2.90;;
59512;SDS011;45330;51.634;5.562;2022-10-16T12:52:28;17.70;;;2.63;;
59512;SDS011;45330;51.634;5.562;2022-10-16T12:55:01;17.25;;;2.80;;
59512;SDS011;45330;51.634;5.562;2022-10-16T12:57:53;14.93;;;2.78;;
59512;SDS011;45330;51.634;5.562;2022-10-16T13:00:44;15.85;;;2.60;;
59512;SDS011;45330;51.634;5.562;2022-10-16T13:08:53;12.55;;;2.63;;
59512;SDS011;45330;51.634;5.562;2022-10-16T13:20:03;15.52;;;3.15;;
59512;SDS011;45330;51.634;5.562;2022-10-16T13:22:42;15.38;;;2.45;;
59512;SDS011;45330;51.634;5.562;2022-10-16T13:28:00;16.15;;;2.88;;
59512;SDS011;45330;51.634;5.562;2022-10-16T13:30:28;14.70;;;2.47;;
59512;SDS011;45330;51.634;5.562;2022-10-16T13:33:15;15.07;;;2.33;;
59512;SDS011;45330;51.634;5.562;2022-10-16T13:35:48;11.30;;;2.42;;
59512;SDS011;45330;51.634;5.562;2022-10-16T13:38:20;11.85;;;2.47;;
59512;SDS011;45330;51.634;5.562;2022-10-16T13:40:48;14.55;;;2.72;;
59512;SDS011;45330;51.634;5.562;2022-10-16T13:43:21;13.63;;;2.72;;
59512;SDS011;45330;51.634;5.562;2022-10-16T13:46:00;14.35;;;2.80;;
59512;SDS011;45330;51.634;5.562;2022-10-16T13:48:28;12.45;;;2.40;;
59512;SDS011;45330;51.634;5.562;2022-10-16T13:51:05;15.27;;;3.00;;
59512;SDS011;45330;51.634;5.562;2022-10-16T13:53:36;15.57;;;2.88;;
59512;SDS011;45330;51.634;5.562;2022-10-16T13:56:03;12.38;;;2.63;;
59512;SDS011;45330;51.634;5.562;2022-10-16T13:58:30;10.95;;;2.60;;
59512;SDS011;45330;51.634;5.562;2022-10-16T14:00:58;8.80;;;2.20;;
59512;SDS011;45330;51.634;5.562;2022-10-16T14:03:26;9.60;;;2.05;;
59512;SDS011;45330;51.634;5.562;2022-10-16T14:05:54;16.80;;;2.70;;
59512;SDS011;45330;51.634;5.562;2022-10-16T14:08:23;13.75;;;2.67;;
59512;SDS011;45330;51.634;5.562;2022-10-16T14:10:51;15.65;;;2.70;;
59512;SDS011;45330;51.634;5.562;2022-10-16T14:16:05;13.77;;;2.53;;
59512;SDS011;45330;51.634;5.562;2022-10-16T14:18:34;14.20;;;2.30;;
59512;SDS011;45330;51.634;5.562;2022-10-16T14:21:05;13.00;;;2.42;;
59512;SDS011;45330;51.634;5.562;2022-10-16T14:23:39;12.23;;;2.67;;
59512;SDS011;45330;51.634;5.562;2022-10-16T14:26:16;13.65;;;2.58;;
59512;SDS011;45330;51.634;5.562;2022-10-16T14:28:44;15.43;;;2.35;;
59512;SDS011;45330;51.634;5.562;2022-10-16T14:31:28;14.18;;;2.40;;
59512;SDS011;45330;51.634;5.562;2022-10-16T14:33:55;12.90;;;2.40;;
59512;SDS011;45330;51.634;5.562;2022-10-16T14:36:21;10.63;;;2.35;;
59512;SDS011;45330;51.634;5.562;2022-10-16T14:39:32;10.77;;;2.40;;
59512;SDS011;45330;51.634;5.562;2022-10-16T14:41:46;13.13;;;2.47;;
59512;SDS011;45330;51.634;5.562;2022-10-16T14:44:13;12.60;;;2.58;;
59512;SDS011;45330;51.634;5.562;2022-10-16T14:46:42;10.93;;;2.40;;
59512;SDS011;45330;51.634;5.562;2022-10-16T14:51:34;10.55;;;2.17;;
59512;SDS011;45330;51.634;5.562;2022-10-16T14:54:00;14.25;;;2.38;;
59512;SDS011;45330;51.634;5.562;2022-10-16T14:56:31;12.18;;;2.58;;
59512;SDS011;45330;51.634;5.562;2022-10-16T14:59:07;13.82;;;2.45;;
59512;SDS011;45330;51.634;5.562;2022-10-16T15:01:42;11.70;;;2.13;;
59512;SDS011;45330;51.634;5.562;2022-10-16T15:04:09;9.63;;;2.40;;
59512;SDS011;45330;51.634;5.562;2022-10-16T15:06:37;10.20;;;2.70;;
59512;SDS011;45330;51.634;5.562;2022-10-16T15:09:02;10.70;;;3.90;;
59512;SDS011;45330;51.634;5.562;2022-10-16T15:11:28;15.00;;;3.20;;
59512;SDS011;45330;51.634;5.562;2022-10-16T15:13:53;10.60;;;2.47;;
59512;SDS011;45330;51.634;5.562;2022-10-16T15:16:19;13.45;;;2.45;;
59512;SDS011;45330;51.634;5.562;2022-10-16T15:18:44;11.68;;;2.33;;
59512;SDS011;45330;51.634;5.562;2022-10-16T15:21:15;10.88;;;2.38;;
59512;SDS011;45330;51.634;5.562;2022-10-16T15:23:49;8.82;;;2.10;;
59512;SDS011;45330;51.634;5.562;2022-10-16T15:26:15;7.43;;;2.00;;
59512;SDS011;45330;51.634;5.562;2022-10-16T15:28:41;7.78;;;2.20;;
59512;SDS011;45330;51.634;5.562;2022-10-16T15:31:06;11.77;;;2.28;;
59512;SDS011;45330;51.634;5.562;2022-10-16T15:33:31;8.20;;;2.25;;
59512;SDS011;45330;51.634;5.562;2022-10-16T15:36:00;7.38;;;2.20;;
59512;SDS011;45330;51.634;5.562;2022-10-16T15:38:26;10.15;;;2.20;;
59512;SDS011;45330;51.634;5.562;2022-10-16T15:40:53;6.10;;;2.20;;
59512;SDS011;45330;51.634;5.562;2022-10-16T15:43:18;8.85;;;2.20;;
59512;SDS011;45330;51.634;5.562;2022-10-16T15:45:44;8.85;;;2.58;;
59512;SDS011;45330;51.634;5.562;2022-10-16T15:48:23;15.55;;;2.72;;
59512;SDS011;45330;51.634;5.562;2022-10-16T15:50:48;8.85;;;2.30;;
59512;SDS011;45330;51.634;5.562;2022-10-16T15:53:13;8.60;;;2.22;;
59512;SDS011;45330;51.634;5.562;2022-10-16T15:55:39;11.15;;;2.30;;
59512;SDS011;45330;51.634;5.562;2022-10-16T15:58:04;8.60;;;2.42;;
59512;SDS011;45330;51.634;5.562;2022-10-16T16:00:30;8.88;;;2.25;;
59512;SDS011;45330;51.634;5.562;2022-10-16T16:02:56;11.02;;;2.40;;
59512;SDS011;45330;51.634;5.562;2022-10-16T16:05:21;10.73;;;2.30;;
59512;SDS011;45330;51.634;5.562;2022-10-16T16:07:49;7.30;;;2.10;;
59512;SDS011;45330;51.634;5.562;2022-10-16T16:10:15;7.18;;;2.20;;
59512;SDS011;45330;51.634;5.562;2022-10-16T16:12:41;9.23;;;2.13;;
59512;SDS011;45330;51.634;5.562;2022-10-16T16:15:07;13.57;;;2.10;;
59512;SDS011;45330;51.634;5.562;2022-10-16T16:17:34;9.02;;;2.30;;
59512;SDS011;45330;51.634;5.562;2022-10-16T16:20:00;10.57;;;2.47;;
59512;SDS011;45330;51.634;5.562;2022-10-16T16:22:26;8.23;;;2.38;;
59512;SDS011;45330;51.634;5.562;2022-10-16T16:24:52;11.27;;;2.10;;
59512;SDS011;45330;51.634;5.562;2022-10-16T16:27:18;9.70;;;2.50;;
59512;SDS011;45330;51.634;5.562;2022-10-16T16:29:45;11.65;;;2.70;;
59512;SDS011;45330;51.634;5.562;2022-10-16T16:32:11;7.75;;;2.58;;
59512;SDS011;45330;51.634;5.562;2022-10-16T16:34:36;9.20;;;2.25;;
59512;SDS011;45330;51.634;5.562;2022-10-16T16:37:02;7.40;;;2.30;;
59512;SDS011;45330;51.634;5.562;2022-10-16T16:39:27;7.95;;;2.50;;
59512;SDS011;45330;51.634;5.562;2022-10-16T16:41:54;7.85;;;2.65;;
59512;SDS011;45330;51.634;5.562;2022-10-16T16:44:21;10.52;;;2.88;;
59512;SDS011;45330;51.634;5.562;2022-10-16T16:46:46;10.13;;;2.83;;
59512;SDS011;45330;51.634;5.562;2022-10-16T16:49:12;12.75;;;2.60;;
59512;SDS011;45330;51.634;5.562;2022-10-16T16:51:38;10.98;;;2.80;;